sensor_id;sensor_type;location;lat;lon;timestamp;pressure;altitude;pressure_sealevel;temperature;humidity
21555;BME280;10938;44.794;-0.676;2022-11-24T00:00:31;101015.19;;;13.49;100.00
21555;BME280;10938;44.794;-0.676;2022-11-24T00:02:58;101015.19;;;13.46;100.00
21555;BME280;10938;44.794;-0.676;2022-11-24T00:05:25;101018.69;;;13.49;100.00
21555;BME280;10938;44.794;-0.676;2022-11-24T00:07:53;101018.69;;;13.49;100.00
21555;BME280;10938;44.794;-0.676;2022-11-24T00:10:19;101016.91;;;13.45;100.00
21555;BME280;10938;44.794;-0.676;2022-11-24T00:12:50;101015.19;;;13.49;100.00
21555;BME280;10938;44.794;-0.676;2022-11-24T00:15:24;101028.19;;;13.32;100.00
21555;BME280;10938;44.794;-0.676;2022-11-24T00:17:49;101022.06;;;13.28;100.00
21555;BME280;10938;44.794;-0.676;2022-11-24T00:20:15;101018.53;;;13.23;100.00
21555;BME280;10938;44.794;-0.676;2022-11-24T00:22:42;101016.78;;;13.22;100.00
21555;BME280;10938;44.794;-0.676;2022-11-24T00:25:12;101008.16;;;13.34;100.00
21555;BME280;10938;44.794;-0.676;2022-11-24T00:27:41;101015.91;;;13.23;100.00
21555;BME280;10938;44.794;-0.676;2022-11-24T00:30:09;101016.78;;;13.21;100.00
21555;BME280;10938;44.794;-0.676;2022-11-24T00:32:37;101010.44;;;12.96;100.00
21555;BME280;10938;44.794;-0.676;2022-11-24T00:35:03;101019.94;;;12.85;100.00
21555;BME280;10938;44.794;-0.676;2022-11-24T00:37:29;101008.69;;;12.98;100.00
21555;BME280;10938;44.794;-0.676;2022-11-24T00:39:54;101009.47;;;12.85;100.00
21555;BME280;10938;44.794;-0.676;2022-11-24T00:42:26;101031.38;;;12.96;100.00
21555;BME280;10938;44.794;-0.676;2022-11-24T00:44:54;101022.69;;;12.97;100.00
21555;BME280;10938;44.794;-0.676;2022-11-24T00:47:19;101015.56;;;12.82;100.00
21555;BME280;10938;44.794;-0.676;2022-11-24T00:49:46;101012.09;;;12.85;100.00
21555;BME280;10938;44.794;-0.676;2022-11-24T00:52:12;101008.69;;;12.98;100.00
21555;BME280;10938;44.794;-0.676;2022-11-24T00:54:37;101018.53;;;13.23;100.00
21555;BME280;10938;44.794;-0.676;2022-11-24T00:57:03;101029.00;;;13.20;100.00
21555;BME280;10938;44.794;-0.676;2022-11-24T00:59:28;101022.00;;;13.19;100.00
21555;BME280;10938;44.794;-0.676;2022-11-24T01:02:02;101025.59;;;13.36;100.00
21555;BME280;10938;44.794;-0.676;2022-11-24T01:04:29;101029.13;;;13.45;100.00
21555;BME280;10938;44.794;-0.676;2022-11-24T01:06:57;101023.84;;;13.34;100.00
21555;BME280;10938;44.794;-0.676;2022-11-24T01:09:25;101023.84;;;13.34;100.00
21555;BME280;10938;44.794;-0.676;2022-11-24T01:11:52;101033.53;;;13.49;100.00
21555;BME280;10938;44.794;-0.676;2022-11-24T01:14:26;101032.63;;;13.37;100.00
21555;BME280;10938;44.794;-0.676;2022-11-24T01:16:52;101035.13;;;13.25;100.00
21555;BME280;10938;44.794;-0.676;2022-11-24T01:19:19;101040.34;;;13.21;100.00
21555;BME280;10938;44.794;-0.676;2022-11-24T01:21:45;101046.41;;;13.17;100.00
21555;BME280;10938;44.794;-0.676;2022-11-24T01:24:11;101051.66;;;13.21;100.00
21555;BME280;10938;44.794;-0.676;2022-11-24T01:26:37;101051.53;;;13.06;100.00
21555;BME280;10938;44.794;-0.676;2022-11-24T01:29:03;101043.59;;;12.94;100.00
21555;BME280;10938;44.794;-0.676;2022-11-24T01:31:34;101052.38;;;13.04;100.00
21555;BME280;10938;44.794;-0.676;2022-11-24T01:34:03;101052.47;;;13.14;100.00
21555;BME280;10938;44.794;-0.676;2022-11-24T01:36:30;101053.38;;;13.13;100.00
21555;BME280;10938;44.794;-0.676;2022-11-24T01:38:56;101042.75;;;13.01;100.00
21555;BME280;10938;44.794;-0.676;2022-11-24T01:41:23;101037.41;;;12.86;100.00
21555;BME280;10938;44.794;-0.676;2022-11-24T01:43:52;101034.88;;;12.97;100.00
21555;BME280;10938;44.794;-0.676;2022-11-24T01:46:23;101040.13;;;12.97;100.00
21555;BME280;10938;44.794;-0.676;2022-11-24T01:51:34;101043.59;;;12.94;100.00
21555;BME280;10938;44.794;-0.676;2022-11-24T01:54:27;101052.28;;;12.95;100.00
21555;BME280;10938;44.794;-0.676;2022-11-24T01:57:01;101047.03;;;12.91;100.00
21555;BME280;10938;44.794;-0.676;2022-11-24T01:59:31;101046.06;;;12.82;100.00
21555;BME280;10938;44.794;-0.676;2022-11-24T02:01:57;101052.09;;;12.72;100.00
21555;BME280;10938;44.794;-0.676;2022-11-24T02:04:28;101055.63;;;12.74;100.00
21555;BME280;10938;44.794;-0.676;2022-11-24T02:07:08;101059.78;;;12.58;100.00
21555;BME280;10938;44.794;-0.676;2022-11-24T02:12:07;101049.91;;;12.30;100.00
21555;BME280;10938;44.794;-0.676;2022-11-24T02:14:39;101051.78;;;12.42;100.00
21555;BME280;10938;44.794;-0.676;2022-11-24T02:17:07;101055.19;;;12.33;100.00
21555;BME280;10938;44.794;-0.676;2022-11-24T02:19:53;101047.34;;;12.34;100.00
21555;BME280;10938;44.794;-0.676;2022-11-24T02:27:43;101061.38;;;12.43;100.00
21555;BME280;10938;44.794;-0.676;2022-11-24T02:30:09;101058.81;;;12.47;100.00
21555;BME280;10938;44.794;-0.676;2022-11-24T02:32:37;101056.22;;;12.47;100.00
21555;BME280;10938;44.794;-0.676;2022-11-24T02:35:06;101044.03;;;12.51;100.00
21555;BME280;10938;44.794;-0.676;2022-11-24T02:37:32;101032.53;;;12.35;100.00
21555;BME280;10938;44.794;-0.676;2022-11-24T02:39:57;101029.78;;;12.24;100.00
21555;BME280;10938;44.794;-0.676;2022-11-24T02:42:23;101027.25;;;12.27;100.00
21555;BME280;10938;44.794;-0.676;2022-11-24T02:44:54;101020.97;;;12.15;100.00
21555;BME280;10938;44.794;-0.676;2022-11-24T02:47:25;101038.75;;;12.48;100.00
21555;BME280;10938;44.794;-0.676;2022-11-24T02:49:52;101038.84;;;12.54;100.00
21555;BME280;10938;44.794;-0.676;2022-11-24T02:52:17;101041.50;;;12.57;100.00
21555;BME280;10938;44.794;-0.676;2022-11-24T02:54:43;101050.25;;;12.62;100.00
21555;BME280;10938;44.794;-0.676;2022-11-24T02:57:09;101048.44;;;12.53;100.00
21555;BME280;10938;44.794;-0.676;2022-11-24T02:59:35;101053.72;;;12.59;100.00
21555;BME280;10938;44.794;-0.676;2022-11-24T03:02:04;101051.84;;;12.48;100.00
21555;BME280;10938;44.794;-0.676;2022-11-24T03:04:29;101032.53;;;12.35;100.00
21555;BME280;10938;44.794;-0.676;2022-11-24T03:06:55;101031.75;;;12.44;100.00
21555;BME280;10938;44.794;-0.676;2022-11-24T03:09:20;101040.56;;;12.55;100.00
21555;BME280;10938;44.794;-0.676;2022-11-24T03:11:46;101041.25;;;12.35;100.00
21555;BME280;10938;44.794;-0.676;2022-11-24T03:14:12;101029.84;;;12.27;100.00
21555;BME280;10938;44.794;-0.676;2022-11-24T03:16:37;101035.94;;;12.28;100.00
21555;BME280;10938;44.794;-0.676;2022-11-24T03:19:03;101044.69;;;12.31;100.00
21555;BME280;10938;44.794;-0.676;2022-11-24T03:21:29;101048.16;;;12.27;100.00
21555;BME280;10938;44.794;-0.676;2022-11-24T03:23:59;101053.31;;;12.24;100.00
21555;BME280;10938;44.794;-0.676;2022-11-24T03:26:26;101038.47;;;12.20;100.00
21555;BME280;10938;44.794;-0.676;2022-11-24T03:28:54;101038.66;;;12.38;100.00
21555;BME280;10938;44.794;-0.676;2022-11-24T03:31:20;101041.19;;;12.31;100.00
21555;BME280;10938;44.794;-0.676;2022-11-24T03:33:48;101044.81;;;12.41;100.00
21555;BME280;10938;44.794;-0.676;2022-11-24T03:36:17;101029.81;;;12.26;100.00
21555;BME280;10938;44.794;-0.676;2022-11-24T03:38:44;101023.84;;;12.37;100.00
21555;BME280;10938;44.794;-0.676;2022-11-24T03:41:13;101018.50;;;12.24;100.00
21555;BME280;10938;44.794;-0.676;2022-11-24T03:43:41;101003.56;;;12.15;100.00
21555;BME280;10938;44.794;-0.676;2022-11-24T03:46:10;101003.72;;;12.27;100.00
21555;BME280;10938;44.794;-0.676;2022-11-24T03:48:36;101012.53;;;12.37;100.00
21555;BME280;10938;44.794;-0.676;2022-11-24T03:51:01;101016.00;;;12.37;100.00
21555;BME280;10938;44.794;-0.676;2022-11-24T03:53:31;101008.13;;;12.34;100.00
21555;BME280;10938;44.794;-0.676;2022-11-24T03:55:58;101011.66;;;12.41;100.00
21555;BME280;10938;44.794;-0.676;2022-11-24T03:58:24;101011.69;;;12.43;100.00
21555;BME280;10938;44.794;-0.676;2022-11-24T04:00:51;101006.28;;;12.26;100.00
21555;BME280;10938;44.794;-0.676;2022-11-24T04:03:17;100996.69;;;12.23;100.00
21555;BME280;10938;44.794;-0.676;2022-11-24T04:05:43;101000.28;;;12.34;100.00
21555;BME280;10938;44.794;-0.676;2022-11-24T04:08:09;100995.06;;;12.37;100.00
21555;BME280;10938;44.794;-0.676;2022-11-24T04:10:36;100991.59;;;12.38;100.00
21555;BME280;10938;44.794;-0.676;2022-11-24T04:13:09;101000.97;;;12.17;100.00
21555;BME280;10938;44.794;-0.676;2022-11-24T04:15:37;100987.16;;;12.27;100.00
21555;BME280;10938;44.794;-0.676;2022-11-24T04:18:08;100988.09;;;12.38;100.00
21555;BME280;10938;44.794;-0.676;2022-11-24T04:20:35;100975.94;;;12.40;100.00
21555;BME280;10938;44.794;-0.676;2022-11-24T04:23:01;100991.78;;;12.54;100.00
21555;BME280;10938;44.794;-0.676;2022-11-24T04:25:28;100982.19;;;12.54;100.00
21555;BME280;10938;44.794;-0.676;2022-11-24T04:27:55;100989.13;;;12.51;100.00
21555;BME280;10938;44.794;-0.676;2022-11-24T04:30:28;100985.59;;;12.44;100.00
21555;BME280;10938;44.794;-0.676;2022-11-24T04:32:54;100975.94;;;12.42;100.00
21555;BME280;10938;44.794;-0.676;2022-11-24T04:35:20;100965.50;;;12.42;100.00
21555;BME280;10938;44.794;-0.676;2022-11-24T04:37:46;100960.41;;;12.57;100.00
21555;BME280;10938;44.794;-0.676;2022-11-24T04:40:12;100957.88;;;12.69;100.00
21555;BME280;10938;44.794;-0.676;2022-11-24T04:42:38;100962.28;;;12.73;100.00
21555;BME280;10938;44.794;-0.676;2022-11-24T04:45:04;100960.81;;;13.07;100.00
21555;BME280;10938;44.794;-0.676;2022-11-24T04:47:31;100956.38;;;13.01;100.00
21555;BME280;10938;44.794;-0.676;2022-11-24T04:49:57;100964.38;;;13.13;100.00
21555;BME280;10938;44.794;-0.676;2022-11-24T04:52:23;100956.63;;;13.33;100.00
21555;BME280;10938;44.794;-0.676;2022-11-24T04:54:49;100958.34;;;13.31;100.00
21555;BME280;10938;44.794;-0.676;2022-11-24T04:57:21;100962.81;;;13.44;100.00
21555;BME280;10938;44.794;-0.676;2022-11-24T04:59:48;100951.50;;;13.56;100.00
21555;BME280;10938;44.794;-0.676;2022-11-24T05:02:13;100962.03;;;13.69;100.00
21555;BME280;10938;44.794;-0.676;2022-11-24T05:04:39;100965.53;;;13.71;100.00
21555;BME280;10938;44.794;-0.676;2022-11-24T05:07:04;100961.19;;;13.76;100.00
21555;BME280;10938;44.794;-0.676;2022-11-24T05:09:30;100953.25;;;13.55;100.00
21555;BME280;10938;44.794;-0.676;2022-11-24T05:11:55;100959.31;;;13.45;100.00
21555;BME280;10938;44.794;-0.676;2022-11-24T05:14:21;100955.75;;;13.35;100.00
21555;BME280;10938;44.794;-0.676;2022-11-24T05:16:46;100945.22;;;13.22;100.00
21555;BME280;10938;44.794;-0.676;2022-11-24T05:19:11;100945.16;;;13.13;100.00
21555;BME280;10938;44.794;-0.676;2022-11-24T05:21:37;100932.25;;;13.46;100.00
21555;BME280;10938;44.794;-0.676;2022-11-24T05:24:03;100938.34;;;13.44;100.00
21555;BME280;10938;44.794;-0.676;2022-11-24T05:26:28;100941.88;;;13.50;100.00
21555;BME280;10938;44.794;-0.676;2022-11-24T05:28:54;100934.94;;;13.61;100.00
21555;BME280;10938;44.794;-0.676;2022-11-24T05:31:20;100936.72;;;13.67;100.00
21555;BME280;10938;44.794;-0.676;2022-11-24T05:33:45;100932.34;;;13.66;100.00
21555;BME280;10938;44.794;-0.676;2022-11-24T05:36:10;100935.88;;;13.80;100.00
21555;BME280;10938;44.794;-0.676;2022-11-24T05:38:56;100941.13;;;13.86;100.00
21555;BME280;10938;44.794;-0.676;2022-11-24T05:41:22;100942.00;;;13.82;100.00
21555;BME280;10938;44.794;-0.676;2022-11-24T05:43:47;100930.56;;;13.60;100.00
21555;BME280;10938;44.794;-0.676;2022-11-24T05:46:13;100919.22;;;13.57;100.00
21555;BME280;10938;44.794;-0.676;2022-11-24T05:48:38;100928.00;;;13.75;100.00
21555;BME280;10938;44.794;-0.676;2022-11-24T05:51:04;100983.03;;;13.78;100.00
21555;BME280;10938;44.794;-0.676;2022-11-24T05:53:29;101000.50;;;13.75;100.00
21555;BME280;10938;44.794;-0.676;2022-11-24T05:55:54;101017.16;;;13.86;100.00
21555;BME280;10938;44.794;-0.676;2022-11-24T05:58:20;101012.72;;;13.73;100.00
21555;BME280;10938;44.794;-0.676;2022-11-24T06:00:45;101010.97;;;13.67;100.00
21555;BME280;10938;44.794;-0.676;2022-11-24T06:03:11;101020.63;;;13.82;100.00
21555;BME280;10938;44.794;-0.676;2022-11-24T06:05:37;101013.66;;;13.81;100.00
21555;BME280;10938;44.794;-0.676;2022-11-24T06:08:03;101025.91;;;13.89;100.00
21555;BME280;10938;44.794;-0.676;2022-11-24T06:10:28;101010.09;;;13.73;100.00
21555;BME280;10938;44.794;-0.676;2022-11-24T06:12:54;101003.13;;;13.78;100.00
21555;BME280;10938;44.794;-0.676;2022-11-24T06:15:20;101002.31;;;13.91;100.00
21555;BME280;10938;44.794;-0.676;2022-11-24T06:17:52;100993.59;;;13.98;100.00
21555;BME280;10938;44.794;-0.676;2022-11-24T06:20:19;100997.13;;;14.03;100.00
21555;BME280;10938;44.794;-0.676;2022-11-24T06:22:44;100984.03;;;14.06;100.00
21555;BME280;10938;44.794;-0.676;2022-11-24T06:25:09;101002.41;;;14.21;100.00
21555;BME280;10938;44.794;-0.676;2022-11-24T06:27:35;101033.91;;;14.26;100.00
21555;BME280;10938;44.794;-0.676;2022-11-24T06:30:00;101044.41;;;14.32;100.00
21555;BME280;10938;44.794;-0.676;2022-11-24T06:32:26;101039.22;;;14.46;100.00
21555;BME280;10938;44.794;-0.676;2022-11-24T06:34:54;101047.06;;;14.35;100.00
21555;BME280;10938;44.794;-0.676;2022-11-24T06:37:19;101042.72;;;14.34;100.00
21555;BME280;10938;44.794;-0.676;2022-11-24T06:39:45;101034.84;;;14.37;100.00
21555;BME280;10938;44.794;-0.676;2022-11-24T06:42:11;101034.78;;;14.23;100.00
21555;BME280;10938;44.794;-0.676;2022-11-24T06:44:38;101045.28;;;14.26;100.00
21555;BME280;10938;44.794;-0.676;2022-11-24T06:47:04;101040.91;;;14.27;100.00
21555;BME280;10938;44.794;-0.676;2022-11-24T06:49:30;101036.53;;;14.27;100.00
21555;BME280;10938;44.794;-0.676;2022-11-24T06:51:56;101043.53;;;14.31;100.00
21555;BME280;10938;44.794;-0.676;2022-11-24T06:54:22;101053.13;;;14.25;100.00
21555;BME280;10938;44.794;-0.676;2022-11-24T06:56:47;101057.56;;;14.36;100.00
21555;BME280;10938;44.794;-0.676;2022-11-24T06:59:18;101060.94;;;14.11;100.00
21555;BME280;10938;44.794;-0.676;2022-11-24T07:01:46;101053.03;;;14.05;100.00
21555;BME280;10938;44.794;-0.676;2022-11-24T07:04:14;101060.03;;;14.08;100.00
21555;BME280;10938;44.794;-0.676;2022-11-24T07:06:40;101057.41;;;14.03;100.00
21555;BME280;10938;44.794;-0.676;2022-11-24T07:09:08;101052.28;;;14.27;100.00
21555;BME280;10938;44.794;-0.676;2022-11-24T07:11:34;101047.00;;;14.23;100.00
21555;BME280;10938;44.794;-0.676;2022-11-24T07:13:59;101053.13;;;14.29;100.00
21555;BME280;10938;44.794;-0.676;2022-11-24T07:16:25;101040.03;;;14.26;100.00
21555;BME280;10938;44.794;-0.676;2022-11-24T07:18:52;101049.72;;;14.39;100.00
21555;BME280;10938;44.794;-0.676;2022-11-24T07:21:21;101052.34;;;14.39;100.00
21555;BME280;10938;44.794;-0.676;2022-11-24T07:23:52;101061.03;;;14.32;100.00
21555;BME280;10938;44.794;-0.676;2022-11-24T07:26:19;101059.34;;;14.50;100.00
21555;BME280;10938;44.794;-0.676;2022-11-24T07:28:44;101059.34;;;14.47;100.00
21555;BME280;10938;44.794;-0.676;2022-11-24T07:31:16;101051.38;;;14.31;100.00
21555;BME280;10938;44.794;-0.676;2022-11-24T07:33:48;101057.56;;;14.41;100.00
21555;BME280;10938;44.794;-0.676;2022-11-24T07:36:14;101068.97;;;14.46;100.00
21555;BME280;10938;44.794;-0.676;2022-11-24T07:38:40;101066.31;;;14.35;100.00
21555;BME280;10938;44.794;-0.676;2022-11-24T07:41:09;101060.19;;;14.39;100.00
21555;BME280;10938;44.794;-0.676;2022-11-24T07:43:36;101058.41;;;14.32;100.00
21555;BME280;10938;44.794;-0.676;2022-11-24T07:46:02;101058.47;;;14.43;100.00
21555;BME280;10938;44.794;-0.676;2022-11-24T07:48:27;101059.38;;;14.53;100.00
21555;BME280;10938;44.794;-0.676;2022-11-24T07:50:53;101055.00;;;14.65;100.00
21555;BME280;10938;44.794;-0.676;2022-11-24T07:53:19;101045.44;;;14.81;100.00
21555;BME280;10938;44.794;-0.676;2022-11-24T07:55:58;101050.69;;;14.87;100.00
21555;BME280;10938;44.794;-0.676;2022-11-24T07:58:28;101050.69;;;14.90;100.00
21555;BME280;10938;44.794;-0.676;2022-11-24T08:00:54;101041.03;;;14.78;100.00
21555;BME280;10938;44.794;-0.676;2022-11-24T08:03:20;101048.03;;;14.88;100.00
21555;BME280;10938;44.794;-0.676;2022-11-24T08:05:56;101048.91;;;14.84;100.00
21555;BME280;10938;44.794;-0.676;2022-11-24T08:08:22;101043.66;;;14.95;100.00
21555;BME280;10938;44.794;-0.676;2022-11-24T08:10:48;101038.41;;;14.98;100.00
21555;BME280;10938;44.794;-0.676;2022-11-24T08:13:16;101037.53;;;14.99;100.00
21555;BME280;10938;44.794;-0.676;2022-11-24T08:15:41;101047.19;;;15.03;100.00
21555;BME280;10938;44.794;-0.676;2022-11-24T08:18:08;101049.78;;;15.26;100.00
21555;BME280;10938;44.794;-0.676;2022-11-24T08:20:34;101053.28;;;15.46;100.00
21555;BME280;10938;44.794;-0.676;2022-11-24T08:23:00;101049.78;;;15.52;100.00
21555;BME280;10938;44.794;-0.676;2022-11-24T08:25:26;101048.91;;;15.37;100.00
21555;BME280;10938;44.794;-0.676;2022-11-24T08:27:57;101056.78;;;15.56;100.00
21555;BME280;10938;44.794;-0.676;2022-11-24T08:30:23;101049.75;;;15.65;100.00
21555;BME280;10938;44.794;-0.676;2022-11-24T08:32:49;101048.03;;;15.54;100.00
21555;BME280;10938;44.794;-0.676;2022-11-24T08:35:14;101042.75;;;15.63;100.00
21555;BME280;10938;44.794;-0.676;2022-11-24T08:37:40;101046.22;;;15.72;100.00
21555;BME280;10938;44.794;-0.676;2022-11-24T08:40:06;101050.59;;;15.87;100.00
21555;BME280;10938;44.794;-0.676;2022-11-24T08:42:32;101044.38;;;16.06;100.00
21555;BME280;10938;44.794;-0.676;2022-11-24T08:44:58;101045.94;;;16.43;100.00
21555;BME280;10938;44.794;-0.676;2022-11-24T08:47:24;101039.81;;;16.38;100.00
21555;BME280;10938;44.794;-0.676;2022-11-24T08:49:51;101046.72;;;16.67;100.00
21555;BME280;10938;44.794;-0.676;2022-11-24T08:52:16;101047.38;;;16.91;100.00
21555;BME280;10938;44.794;-0.676;2022-11-24T08:54:42;101058.75;;;16.99;100.00
21555;BME280;10938;44.794;-0.676;2022-11-24T08:57:18;101070.75;;;17.37;100.00
21555;BME280;10938;44.794;-0.676;2022-11-24T08:59:43;101062.66;;;17.54;100.00
21555;BME280;10938;44.794;-0.676;2022-11-24T09:02:11;101050.03;;;17.87;100.00
21555;BME280;10938;44.794;-0.676;2022-11-24T09:04:37;101044.53;;;18.06;100.00
21555;BME280;10938;44.794;-0.676;2022-11-24T09:07:04;101037.59;;;17.97;100.00
21555;BME280;10938;44.794;-0.676;2022-11-24T09:09:30;101018.50;;;17.75;100.00
21555;BME280;10938;44.794;-0.676;2022-11-24T09:11:55;101004.63;;;17.58;100.00
21555;BME280;10938;44.794;-0.676;2022-11-24T09:14:20;100989.63;;;17.66;100.00
21555;BME280;10938;44.794;-0.676;2022-11-24T09:16:46;100983.69;;;18.16;100.00
21555;BME280;10938;44.794;-0.676;2022-11-24T09:19:11;100986.09;;;18.31;100.00
21555;BME280;10938;44.794;-0.676;2022-11-24T09:21:37;101001.72;;;18.51;100.00
21555;BME280;10938;44.794;-0.676;2022-11-24T09:24:04;101009.13;;;18.23;100.00
21555;BME280;10938;44.794;-0.676;2022-11-24T09:26:33;101016.16;;;18.23;100.00
21555;BME280;10938;44.794;-0.676;2022-11-24T09:29:00;101012.16;;;17.93;100.00
21555;BME280;10938;44.794;-0.676;2022-11-24T09:31:32;101026.81;;;18.15;100.00
21555;BME280;10938;44.794;-0.676;2022-11-24T09:33:59;101027.63;;;18.19;100.00
21555;BME280;10938;44.794;-0.676;2022-11-24T09:36:25;101043.72;;;17.99;100.00
21555;BME280;10938;44.794;-0.676;2022-11-24T09:38:51;101044.44;;;18.12;100.00
21555;BME280;10938;44.794;-0.676;2022-11-24T09:41:20;101035.75;;;18.04;100.00
21555;BME280;10938;44.794;-0.676;2022-11-24T09:47:17;101035.19;;;18.46;100.00
21555;BME280;10938;44.794;-0.676;2022-11-24T09:49:55;101042.44;;;18.93;100.00
21555;BME280;10938;44.794;-0.676;2022-11-24T09:52:57;101048.78;;;18.81;100.00
21555;BME280;10938;44.794;-0.676;2022-11-24T09:55:44;101043.72;;;18.66;100.00
21555;BME280;10938;44.794;-0.676;2022-11-24T10:01:19;101021.25;;;18.38;100.00
21555;BME280;10938;44.794;-0.676;2022-11-24T10:03:52;101027.06;;;17.95;100.00
21555;BME280;10938;44.794;-0.676;2022-11-24T10:06:22;101011.97;;;18.05;100.00
21555;BME280;10938;44.794;-0.676;2022-11-24T10:09:22;101026.00;;;18.10;100.00
21555;BME280;10938;44.794;-0.676;2022-11-24T10:12:03;101009.66;;;17.81;100.00
21555;BME280;10938;44.794;-0.676;2022-11-24T10:28:50;100994.47;;;17.99;100.00
21555;BME280;10938;44.794;-0.676;2022-11-24T10:31:33;100987.31;;;18.09;100.00
21555;BME280;10938;44.794;-0.676;2022-11-24T10:34:04;100984.81;;;17.98;100.00
21555;BME280;10938;44.794;-0.676;2022-11-24T10:36:52;100975.28;;;17.87;100.00
21555;BME280;10938;44.794;-0.676;2022-11-24T10:39:35;100970.72;;;17.98;100.00
21555;BME280;10938;44.794;-0.676;2022-11-24T10:44:41;100965.44;;;17.99;100.00
21555;BME280;10938;44.794;-0.676;2022-11-24T10:47:20;100967.28;;;17.93;100.00
21555;BME280;10938;44.794;-0.676;2022-11-24T10:50:00;100962.09;;;17.87;100.00
21555;BME280;10938;44.794;-0.676;2022-11-24T10:52:29;100955.50;;;18.20;100.00
21555;BME280;10938;44.794;-0.676;2022-11-24T10:55:02;100961.09;;;17.97;100.00
21555;BME280;10938;44.794;-0.676;2022-11-24T10:59:56;100951.22;;;17.39;100.00
21555;BME280;10938;44.794;-0.676;2022-11-24T11:02:36;100949.78;;;17.87;100.00
21555;BME280;10938;44.794;-0.676;2022-11-24T11:08:16;100936.81;;;17.71;100.00
21555;BME280;10938;44.794;-0.676;2022-11-24T11:10:45;100937.97;;;17.47;100.00
21555;BME280;10938;44.794;-0.676;2022-11-24T11:13:27;100925.19;;;17.09;100.00
21555;BME280;10938;44.794;-0.676;2022-11-24T11:15:54;100901.97;;;17.43;100.00
21555;BME280;10938;44.794;-0.676;2022-11-24T11:18:21;100897.81;;;17.22;100.00
21555;BME280;10938;44.794;-0.676;2022-11-24T11:20:57;100882.09;;;17.15;100.00
21555;BME280;10938;44.794;-0.676;2022-11-24T11:23:44;100887.16;;;17.33;100.00
21555;BME280;10938;44.794;-0.676;2022-11-24T11:31:27;100879.81;;;17.61;100.00
21555;BME280;10938;44.794;-0.676;2022-11-24T11:34:14;100862.41;;;17.46;100.00
21555;BME280;10938;44.794;-0.676;2022-11-24T11:36:48;100861.25;;;18.26;100.00
21555;BME280;10938;44.794;-0.676;2022-11-24T11:41:47;100867.91;;;18.51;100.00
21555;BME280;10938;44.794;-0.676;2022-11-24T11:44:25;100868.41;;;18.21;100.00
21555;BME280;10938;44.794;-0.676;2022-11-24T11:46:55;100864.84;;;18.22;100.00
21555;BME280;10938;44.794;-0.676;2022-11-24T11:49:23;100855.34;;;18.66;100.00
21555;BME280;10938;44.794;-0.676;2022-11-24T11:55:27;100858.03;;;18.63;100.00
21555;BME280;10938;44.794;-0.676;2022-11-24T12:00:25;100873.31;;;18.93;100.00
21555;BME280;10938;44.794;-0.676;2022-11-24T12:03:18;100872.31;;;18.49;100.00
21555;BME280;10938;44.794;-0.676;2022-11-24T12:09:06;100871.09;;;19.16;100.00
21555;BME280;10938;44.794;-0.676;2022-11-24T12:22:17;100885.22;;;19.61;100.00
21555;BME280;10938;44.794;-0.676;2022-11-24T12:27:43;100891.78;;;19.82;100.00
21555;BME280;10938;44.794;-0.676;2022-11-24T12:30:15;100897.06;;;19.83;100.00
21555;BME280;10938;44.794;-0.676;2022-11-24T12:35:56;100894.97;;;19.97;100.00
21555;BME280;10938;44.794;-0.676;2022-11-24T12:41:23;100893.72;;;20.14;100.00
21555;BME280;10938;44.794;-0.676;2022-11-24T12:43:54;100891.81;;;20.19;100.00
21555;BME280;10938;44.794;-0.676;2022-11-24T12:51:41;100898.56;;;20.33;100.00
21555;BME280;10938;44.794;-0.676;2022-11-24T12:54:16;100895.72;;;20.02;100.00
21555;BME280;10938;44.794;-0.676;2022-11-24T13:05:47;100910.31;;;19.82;100.00
21555;BME280;10938;44.794;-0.676;2022-11-24T13:07:48;100901.19;;;19.55;100.00
21555;BME280;10938;44.794;-0.676;2022-11-24T13:12:56;100896.81;;;19.54;100.00
21555;BME280;10938;44.794;-0.676;2022-11-24T13:15:24;100890.66;;;19.52;100.00
21555;BME280;10938;44.794;-0.676;2022-11-24T13:17:49;100883.72;;;19.48;100.00
21555;BME280;10938;44.794;-0.676;2022-11-24T13:20:30;100879.59;;;19.33;100.00
21555;BME280;10938;44.794;-0.676;2022-11-24T13:23:00;100881.63;;;19.19;100.00
21555;BME280;10938;44.794;-0.676;2022-11-24T13:25:33;100874.19;;;18.93;100.00
21555;BME280;10938;44.794;-0.676;2022-11-24T13:28:01;100854.19;;;18.80;100.00
21555;BME280;10938;44.794;-0.676;2022-11-24T13:33:28;100847.22;;;18.78;100.00
21555;BME280;10938;44.794;-0.676;2022-11-24T13:46:59;100849.47;;;18.47;100.00
21555;BME280;10938;44.794;-0.676;2022-11-24T13:49:39;100844.59;;;18.24;100.00
21555;BME280;10938;44.794;-0.676;2022-11-24T13:52:40;100834.16;;;18.15;100.00
21555;BME280;10938;44.794;-0.676;2022-11-24T13:57:40;100823.03;;;17.95;100.00
21555;BME280;10938;44.794;-0.676;2022-11-24T14:02:49;100820.66;;;17.80;100.00
21555;BME280;10938;44.794;-0.676;2022-11-24T14:05:17;100821.81;;;17.61;100.00
21555;BME280;10938;44.794;-0.676;2022-11-24T14:07:45;100818.28;;;17.62;100.00
21555;BME280;10938;44.794;-0.676;2022-11-24T14:10:29;100813.69;;;17.76;100.00
21555;BME280;10938;44.794;-0.676;2022-11-24T14:16:03;100793.22;;;17.30;100.00
21555;BME280;10938;44.794;-0.676;2022-11-24T14:18:29;100786.22;;;17.25;100.00
21555;BME280;10938;44.794;-0.676;2022-11-24T14:21:02;100787.31;;;17.09;100.00
21555;BME280;10938;44.794;-0.676;2022-11-24T14:23:42;100787.25;;;17.15;100.00
21555;BME280;10938;44.794;-0.676;2022-11-24T14:26:18;100786.69;;;16.90;100.00
21555;BME280;10938;44.794;-0.676;2022-11-24T14:28:44;100769.22;;;16.84;100.00
21555;BME280;10938;44.794;-0.676;2022-11-24T14:31:22;100746.22;;;16.97;100.00
21555;BME280;10938;44.794;-0.676;2022-11-24T14:33:48;100751.59;;;16.88;100.00